地図

経路データ

SID SEASON NUMBER BASIN SUBBASIN NAME ISO_TIME NATURE LAT LON WMO_WIND WMO_PRES WMO_AGENCY TRACK_TYPE DIST2LAND LANDFALL IFLAG USA_AGENCY USA_ATCF_ID USA_LAT USA_LON USA_RECORD USA_STATUS USA_WIND USA_PRES USA_SSHS USA_R34_NE USA_R34_SE USA_R34_SW USA_R34_NW USA_R50_NE USA_R50_SE USA_R50_SW USA_R50_NW USA_R64_NE USA_R64_SE USA_R64_SW USA_R64_NW USA_POCI USA_ROCI USA_RMW USA_EYE TOKYO_LAT TOKYO_LON TOKYO_GRADE TOKYO_WIND TOKYO_PRES TOKYO_R50_DIR TOKYO_R50_LONG TOKYO_R50_SHORT TOKYO_R30_DIR TOKYO_R30_LONG TOKYO_R30_SHORT TOKYO_LAND CMA_LAT CMA_LON CMA_CAT CMA_WIND CMA_PRES HKO_LAT HKO_LON HKO_CAT HKO_WIND HKO_PRES NEWDELHI_LAT NEWDELHI_LON NEWDELHI_GRADE NEWDELHI_WIND NEWDELHI_PRES NEWDELHI_CI NEWDELHI_DP NEWDELHI_POCI REUNION_LAT REUNION_LON REUNION_TYPE REUNION_WIND REUNION_PRES REUNION_TNUM REUNION_CI REUNION_RMW REUNION_R34_NE REUNION_R34_SE REUNION_R34_SW REUNION_R34_NW REUNION_R50_NE REUNION_R50_SE REUNION_R50_SW REUNION_R50_NW REUNION_R64_NE REUNION_R64_SE REUNION_R64_SW REUNION_R64_NW BOM_LAT BOM_LON BOM_TYPE BOM_WIND BOM_PRES BOM_TNUM BOM_CI BOM_RMW BOM_R34_NE BOM_R34_SE BOM_R34_SW BOM_R34_NW BOM_R50_NE BOM_R50_SE BOM_R50_SW BOM_R50_NW BOM_R64_NE BOM_R64_SE BOM_R64_SW BOM_R64_NW BOM_ROCI BOM_POCI BOM_EYE BOM_POS_METHOD BOM_PRES_METHOD NADI_LAT NADI_LON NADI_CAT NADI_WIND NADI_PRES WELLINGTON_LAT WELLINGTON_LON WELLINGTON_WIND WELLINGTON_PRES DS824_LAT DS824_LON DS824_STAGE DS824_WIND DS824_PRES TD9636_LAT TD9636_LON TD9636_STAGE TD9636_WIND TD9636_PRES TD9635_LAT TD9635_LON TD9635_WIND TD9635_PRES TD9635_ROCI NEUMANN_LAT NEUMANN_LON NEUMANN_CLASS NEUMANN_WIND NEUMANN_PRES MLC_LAT MLC_LON MLC_CLASS MLC_WIND MLC_PRES USA_GUST BOM_GUST BOM_GUST_PER REUNION_GUST REUNION_GUST_PER USA_SEAHGT USA_SEARAD_NE USA_SEARAD_SE USA_SEARAD_SW USA_SEARAD_NW STORM_SPEED STORM_DIR
1940002S13148 1940 2 SP EA NOT_NAMED 1940-01-01 12:00:00 NR -13.0000 148.300 main 311 311 __________O___ -1 -13.0000 148.300 7 5 138
1940002S13148 1940 2 SP EA NOT_NAMED 1940-01-01 15:00:00 NR -13.1986 148.482 main 328 328 __________P___ -1 -13.1986 148.482 7 5 139
1940002S13148 1940 2 SP EA NOT_NAMED 1940-01-01 18:00:00 NR -13.3877 148.652 main 339 339 __________P___ -1 -13.3877 148.652 7 5 140
1940002S13148 1940 2 SP EA NOT_NAMED 1940-01-01 21:00:00 NR -13.5579 148.796 main 356 353 __________P___ -1 -13.5579 148.796 7 4 143
1940002S13148 1940 2 SP EA NOT_NAMED 1940-01-02 00:00:00 NR -13.7000 148.900 main 363 363 __________O___ -1 -13.7000 148.900 7 3 148
1940002S13148 1940 2 SP EA NOT_NAMED 1940-01-02 03:00:00 NR -13.8077 148.957 main 370 370 __________P___ -1 -13.8077 148.957 7 2 158
1940002S13148 1940 2 SP EA NOT_NAMED 1940-01-02 06:00:00 NR -13.8874 148.980 main 381 381 __________P___ -1 -13.8874 148.980 7 1 162
1940002S13148 1940 2 SP EA NOT_NAMED 1940-01-02 09:00:00 NR -13.9484 148.988 main 381 381 __________P___ -1 -13.9484 148.988 7 1 0
1940002S13148 1940 2 SP EA NOT_NAMED 1940-01-02 12:00:00 NR -14.0000 149.000 main 391 391 __________O___ -1 -14.0000 149.000 7 1 152
1940002S13148 1940 2 SP EA NOT_NAMED 1940-01-02 15:00:00 NR -14.0531 149.039 main 402 399 __________P___ -1 -14.0531 149.039 7 1 143
1940002S13148 1940 2 SP EA NOT_NAMED 1940-01-02 18:00:00 NR -14.1000 149.085 main 399 399 __________P___ -1 -14.1000 149.085 7 1 133
1940002S13148 1940 2 SP EA NOT_NAMED 1940-01-02 21:00:00 NR -14.1469 149.139 main 399 399 __________P___ -1 -14.1469 149.139 7 2 132
1940002S13148 1940 2 SP EA NOT_NAMED 1940-01-03 00:00:00 NR -14.2000 149.200 main 406 406 __________O___ -1 -14.2000 149.200 7 2 135
1940002S13148 1940 2 SP EA NOT_NAMED 1940-01-03 03:00:00 NR -14.2678 149.268 main 414 414 __________P___ -1 -14.2678 149.268 7 2 136
1940002S13148 1940 2 SP EA NOT_NAMED 1940-01-03 06:00:00 NR -14.3425 149.342 main 414 414 __________P___ -1 -14.3425 149.342 7 2 136
1940002S13148 1940 2 SP EA NOT_NAMED 1940-01-03 09:00:00 NR -14.4209 149.421 main 423 423 __________P___ -1 -14.4209 149.421 7 2 136
1940002S13148 1940 2 SP EA NOT_NAMED 1940-01-03 12:00:00 NR -14.5000 149.500 main 432 432 __________O___ -1 -14.5000 149.500 7 2 134
1940002S13148 1940 2 SP EA NOT_NAMED 1940-01-03 15:00:00 NR -14.5383 149.547 main 432 430 __________P___ -1 -14.5383 149.547 7 1 131
1940002S13148 1940 2 SP EA NOT_NAMED 1940-01-03 18:00:00 NR -14.5823 149.598 main 441 440 __________P___ -1 -14.5823 149.598 7 2 135
1940002S13148 1940 2 SP EA NOT_NAMED 1940-01-03 21:00:00 NR -14.6602 149.675 main 451 451 __________P___ -1 -14.6602 149.675 7 3 138
1940002S13148 1940 2 SP EA NOT_NAMED 1940-01-04 00:00:00 NR -14.8000 149.800 main 461 461 __________O___ -1 -14.8000 149.800 7 5 140
1940002S13148 1940 2 SP EA NOT_NAMED 1940-01-04 03:00:00 NR -15.0355 150.003 main 481 481 __________P___ -1 -15.0355 150.003 7 7 141
1940002S13148 1940 2 SP EA NOT_NAMED 1940-01-04 06:00:00 NR -15.3327 150.255 main 506 500 __________P___ -1 -15.3327 150.255 7 8 141
1940002S13148 1940 2 SP EA NOT_NAMED 1940-01-04 09:00:00 NR -15.6636 150.529 main 506 506 __________P___ -1 -15.6636 150.529 7 9 142
1940002S13148 1940 2 SP EA NOT_NAMED 1940-01-04 12:00:00 NR -16.0000 150.800 main 519 502 __________O___ -1 -16.0000 150.800 7 8 145
1940002S13148 1940 2 SP EA NOT_NAMED 1940-01-04 15:00:00 NR -16.3119 151.008 main 502 485 __________P___ -1 -16.3119 151.008 7 7 148
1940002S13148 1940 2 SP EA NOT_NAMED 1940-01-04 18:00:00 NR -16.6220 151.213 main 485 468 __________P___ -1 -16.6220 151.213 7 7 146
1940002S13148 1940 2 SP EA NOT_NAMED 1940-01-04 21:00:00 NR -16.9212 151.436 main 468 462 __________P___ -1 -16.9212 151.436 7 7 141
1940002S13148 1940 2 SP EA NOT_NAMED 1940-01-05 00:00:00 NR -17.2000 151.700 main 462 460 __________O___ -1 -17.2000 151.700 7 8 132
1940002S13148 1940 2 SP EA NOT_NAMED 1940-01-05 03:00:00 NR -17.4469 152.048 main 467 467 __________P___ -1 -17.4469 152.048 7 8 124
1940002S13148 1940 2 SP EA NOT_NAMED 1940-01-05 06:00:00 NR -17.6730 152.435 main 477 477 __________P___ -1 -17.6730 152.435 7 9 121
1940002S13148 1940 2 SP EA NOT_NAMED 1940-01-05 09:00:00 NR -17.8875 152.829 main 498 498 __________P___ -1 -17.8875 152.829 7 8 120
1940002S13148 1940 2 SP EA NOT_NAMED 1940-01-05 12:00:00 NR -18.1000 153.200 main 523 523 __________O___ -1 -18.1000 153.200 7 7 125
1940002S13148 1940 2 SP EA NOT_NAMED 1940-01-05 15:00:00 NR -18.2577 153.390 main 532 532 __________P___ -1 -18.2577 153.390 7 5 133
1940002S13148 1940 2 SP EA NOT_NAMED 1940-01-05 18:00:00 NR -18.4261 153.569 main 539 527 __________P___ -1 -18.4261 153.569 7 6 133
1940002S13148 1940 2 SP EA NOT_NAMED 1940-01-05 21:00:00 NR -18.6566 153.838 main 524 524 __________P___ -1 -18.6566 153.838 7 9 130
1940002S13148 1940 2 SP EA NOT_NAMED 1940-01-06 00:00:00 NR -19.0000 154.300 main 533 533 __________O___ -1 -19.0000 154.300 7 15 125
1940002S13148 1940 2 SP EA NOT_NAMED 1940-01-06 03:00:00 NR -19.5058 155.129 main 558 558 __________P___ -1 -19.5058 155.129 7 21 123
1940002S13148 1940 2 SP EA NOT_NAMED 1940-01-06 06:00:00 NR -20.1209 156.153 main 603 593 __________P___ -1 -20.1209 156.153 7 24 123
1940002S13148 1940 2 SP EA NOT_NAMED 1940-01-06 09:00:00 NR -20.7998 157.251 main 606 604 __________P___ -1 -20.7998 157.251 7 24 124
1940002S13148 1940 2 SP EA NOT_NAMED 1940-01-06 12:00:00 NR -21.5000 158.300 main 606 540 __________O___ -1 -21.5000 158.300 7 23 127
1940002S13148 1940 2 SP EA NOT_NAMED 1940-01-06 15:00:00 NR -22.1895 159.201 main 540 507 __________P___ -1 -22.1895 159.201 7 21 131
1940002S13148 1940 2 SP EA NOT_NAMED 1940-01-06 18:00:00 NR -22.8666 159.971 main 505 491 __________P___ -1 -22.8666 159.971 7 19 135
1940002S13148 1940 2 SP MM NOT_NAMED 1940-01-06 21:00:00 NR -23.5357 160.656 main 485 479 __________P___ -1 -23.5357 160.656 7 18 138
1940002S13148 1940 2 SP MM NOT_NAMED 1940-01-07 00:00:00 NR -24.2000 161.300 main 483 __________O___ -1 -24.2000 161.300 7 18 138

デジタル台風データ・検索

IBTrACS Databaseについて

本データベースは、米国NOAAが公開する1842年以降の世界の熱帯低気圧のベストトラックデータアーカイブInternational Best Track Archive for Climate Stewardship (IBTrACS)を、ウェブで閲覧しやすい形式に変換したものです。

最終更新日:2021-10-27